Главная страница
METAR-TAF:

METAR-TAF

Аэропорты :

Кристиансунн, Норвегия

широта: 63-07N, долгота: 007-50E, высота над уровнем моря: 6 м

Текущие метеонаблюдения

Эта сводка был подготовлена 44 минут назад, в 23:20 UTC
Ветер 5 Узел от северо-восточный
Температура 6°C
Влажность 100%
Давление 1040 hPa
Видимость: 0150 м
туман

METAR: ENKB 172320Z AUTO 05005KT 0150 R07/P2000N R25/0700N FG BKN001/// 06/06 Q1040 RMK WIND 745FT 09012KT

Время: 01:04 (00:04 UTC)

Прогноз

Эта сводка был подготовлена 4 часа и 31 минут назад, в 19:33 UTC
Прогноз действительный с 17-го 19 UTC до 17-го 22 UTC
Ветер 5 Узел от северо-восточный
Видимость: 0100 м
на высоте 100 фута
туман
Вероятность 30%
С 17-го 20 UTC до 17-го 22 UTC
Видимость: 8000 м
Отдельные облака на высоте 100 фута

TAF: ENKB 171933Z 1719/1722 05005KT 0100 FG VV001 PROB30 1720/1722 8000 NSW SCT001

Метеонаблюдения и прогнозы для более 4000 аэропортов (сводки METAR и TAF).

Имеющиеся станции представлены на карте желтыми и красными точками.

Чтобы увидеть название станции, наведите на нее мышь.

Затем щелкните, чтобы увидеть метеонаблюдения и метеопрогнозы.

Управление картой: чтобы увеличить масштаб, щелкните зеленые кнопки с черным крестиком; чтобы уменьшить масштаб, щелкните зеленую кнопку с тире; для просмотра соседних карт щелкайте зеленые стрелки.


METAR-TAF: